Airfield :







YOU CAN JOIN US ON...

 
LOGIN :

Register | Disclaimer

   EN    FR    IT 

 









Legend :    VFR   Marginal VFR   IFR   Intensive IFR   Very Intensive IFR
Visi :
Ceiling :
>= 8 km
>= 3000ft
5 to 8 km
1000 to 3000 ft
1500m to 5 km
500 to 1000 ft
800 to 1500m
200 to 500 ft
< 800m
< 200 ft
Symbols :   Thunderstorms  Fog  Heavy snow  Heavy precipitations  Wind > 20 kt






- Airport Elevation : 118 ft
- IATA code : YUL


CYUL - Montréal - Pierre-Elliott-Trudeau Int.

CURRENT METAR :
  • 072100Z 26015G21KT 30SM FEW060 FEW250 13/M09 A2973 RMK CU1CI1 CU TR SLP071

EXPIRED METARs :
  • 072000Z 28012G25KT 30SM FEW060 FEW250 13/M09 A2975 RMK CU1CI2 CU TR SLP078
  • 071900Z 27015G22KT 30SM FEW060 FEW250 12/M06 A2978 RMK CU1CI1 CU TR SLP086

TAF TAF CYUL
Valid from the 07 at 21:00 until the 08 at 18:00 UTC


072038Z 0721/0818 27015G25KT P6SM FEW250
BECMG 0721/0723 28012KT
FM080200 03006KT P6SM SCT240
FM080900 03010KT P6SM BKN160 BKN220
FM081400 03012KT P6SM OVC120 RMK NXT FCST BY 080000Z
ATIS : ENG : +1 514-633-3037 FRA : +1 514-633-3034



MET'MAP, your aeronautical weather chart ! - Copyright ORBIFLY December 2007 - Disclaimer

ORBIFLY MET'MAP TEAM :

Programming & Development : Alexandra Zaïnal
Concept & original design : Baudouin d'Aumeries
Assistance for programming : Marc-Olivier Méhu
Technical & hardware support : Manuel Goepfert

Contact : metmap@orbifly.com




SOURCES & CREDITS :

   NOAA